Terminal Aerodrome Forecast
Issued by NWS

Home | Current Version | Previous Version | Text Only | Print | Product List | Glossary On
Versions: 1 2 3 4 5 6 7 8 9 10 11 12 13 14 15
000
FTUS43 KJKL 291100
TAFSME
TAF
KSME 291138Z 2912/3012 VRB03KT P6SM SCT004 BKN050
     FM291300 29006KT P6SM FEW050
     FM292300 00000KT P6SM SKC=

USA.gov is the U.S. government's official web portal to all federal, state and local government web resources and services.